createdAt,value
2023-07-03T00:01:50.188Z,7.07
2023-07-03T00:04:22.056Z,5.32
2023-07-03T00:06:52.776Z,4.22
2023-07-03T00:09:22.889Z,5.30
2023-07-03T00:11:53.242Z,8.43
2023-07-03T00:14:23.751Z,5.60
2023-07-03T00:16:53.708Z,7.95
2023-07-03T00:19:29.189Z,6.80
2023-07-03T00:22:03.031Z,7.05
2023-07-03T00:24:34.164Z,5.78
2023-07-03T00:27:04.306Z,6.72
2023-07-03T00:29:35.034Z,4.90
2023-07-03T00:32:21.566Z,6.40
2023-07-03T00:34:53.260Z,6.82
2023-07-03T00:37:24.131Z,6.20
2023-07-03T00:39:54.110Z,6.15
2023-07-03T00:42:27.037Z,6.35
2023-07-03T00:44:57.039Z,7.43
2023-07-03T00:47:27.430Z,11.75
2023-07-03T00:49:59.111Z,13.05
2023-07-03T00:52:29.414Z,7.63
2023-07-03T00:55:02.603Z,9.90
2023-07-03T00:57:32.785Z,7.22
2023-07-03T01:00:09.346Z,6.47
2023-07-03T01:02:43.532Z,12.38
2023-07-03T01:05:18.440Z,7.05
2023-07-03T01:07:49.023Z,12.18
2023-07-03T01:10:21.473Z,8.50
2023-07-03T01:12:54.308Z,6.60
2023-07-03T01:15:27.493Z,5.95
2023-07-03T01:17:58.914Z,7.30
2023-07-03T01:20:33.808Z,5.40
2023-07-03T01:23:09.705Z,6.20
2023-07-03T01:25:44.166Z,5.60
2023-07-03T01:28:16.292Z,4.97
2023-07-03T01:30:46.921Z,4.95
2023-07-03T01:33:20.414Z,5.18
2023-07-03T01:35:51.719Z,5.50
2023-07-03T01:38:25.365Z,4.85
2023-07-03T01:40:57.772Z,5.78
2023-07-03T01:43:27.818Z,7.05
2023-07-03T01:45:57.973Z,5.10
2023-07-03T01:48:40.562Z,4.70
2023-07-03T01:51:13.141Z,6.13
2023-07-03T01:54:07.888Z,4.75
2023-07-03T01:56:44.223Z,5.10
2023-07-03T01:59:15.521Z,3.63
2023-07-03T02:01:50.202Z,3.88
2023-07-03T02:04:26.027Z,3.25
2023-07-03T02:06:57.206Z,3.78
2023-07-03T02:09:27.654Z,4.47
2023-07-03T02:11:59.899Z,4.70
2023-07-03T02:14:30.116Z,4.43
2023-07-03T02:17:00.686Z,4.10
2023-07-03T02:19:35.841Z,2.80
2023-07-03T02:22:06.499Z,3.58
2023-07-03T02:24:36.840Z,4.13
2023-07-03T02:27:09.407Z,4.07
2023-07-03T02:29:39.466Z,3.05
2023-07-03T02:32:14.929Z,11.38
2023-07-03T02:34:45.032Z,7.05
2023-07-03T02:37:16.536Z,3.40
2023-07-03T02:39:46.740Z,3.08
2023-07-03T02:42:18.566Z,4.18
2023-07-03T02:44:48.634Z,3.90
2023-07-03T02:47:18.946Z,3.42
2023-07-03T02:49:49.164Z,3.88
2023-07-03T02:52:19.269Z,3.55
2023-07-03T02:54:49.394Z,3.78
2023-07-03T02:57:21.156Z,3.65
2023-07-03T02:59:51.176Z,3.40
2023-07-03T03:02:23.382Z,13.57
2023-07-03T03:04:53.591Z,15.38
2023-07-03T03:07:23.656Z,9.40
2023-07-03T03:09:53.764Z,2.90
2023-07-03T03:12:42.541Z,2.22
2023-07-03T03:15:13.096Z,2.50
2023-07-03T03:17:43.449Z,3.13
2023-07-03T03:20:16.745Z,3.83
2023-07-03T03:22:46.994Z,2.78
2023-07-03T03:25:17.108Z,3.28
2023-07-03T03:27:48.784Z,2.53
2023-07-03T03:30:18.951Z,2.40
2023-07-03T03:32:50.102Z,2.50
2023-07-03T03:35:20.172Z,1.90
2023-07-03T03:37:50.059Z,2.05
2023-07-03T03:40:20.199Z,2.00
2023-07-03T03:42:51.860Z,2.03
2023-07-03T03:45:21.908Z,8.32
2023-07-03T03:47:51.959Z,10.13
2023-07-03T03:50:22.112Z,8.63
2023-07-03T03:52:51.982Z,2.88
2023-07-03T03:55:21.971Z,2.70
2023-07-03T03:57:53.621Z,3.03
2023-07-03T04:00:24.063Z,3.08
2023-07-03T04:02:53.961Z,2.92
2023-07-03T04:05:24.020Z,2.20
2023-07-03T04:07:53.966Z,2.13
2023-07-03T04:10:24.013Z,1.67
2023-07-03T04:12:55.679Z,1.65
2023-07-03T04:15:26.577Z,2.35
2023-07-03T04:17:57.206Z,2.55
2023-07-03T04:20:28.223Z,2.92
2023-07-03T04:22:58.375Z,1.95
2023-07-03T04:25:28.406Z,2.20
2023-07-03T04:28:00.235Z,2.28
2023-07-03T04:30:30.397Z,2.20
2023-07-03T04:33:00.582Z,2.00
2023-07-03T04:35:30.686Z,1.23
2023-07-03T04:38:00.869Z,1.70
2023-07-03T04:40:31.322Z,1.63
2023-07-03T04:43:03.257Z,1.60
2023-07-03T04:45:34.677Z,1.13
2023-07-03T04:48:04.664Z,1.50
2023-07-03T04:50:34.674Z,1.63
2023-07-03T04:53:06.407Z,1.60
2023-07-03T04:55:37.122Z,1.58
2023-07-03T04:58:10.357Z,1.10
2023-07-03T05:00:42.337Z,1.40
2023-07-03T05:03:12.929Z,1.48
2023-07-03T05:05:43.266Z,1.90
2023-07-03T05:08:13.629Z,1.30
2023-07-03T05:10:43.767Z,1.30
2023-07-03T05:13:15.674Z,1.58
2023-07-03T05:15:45.938Z,1.42
2023-07-03T05:18:16.292Z,1.30
2023-07-03T05:20:46.942Z,1.05
2023-07-03T05:23:18.089Z,1.23
2023-07-03T05:25:50.074Z,0.82
2023-07-03T05:28:21.949Z,1.13
2023-07-03T05:30:57.326Z,1.27
2023-07-03T05:33:27.662Z,0.93
2023-07-03T05:35:59.837Z,1.00
2023-07-03T05:38:29.999Z,1.02
2023-07-03T05:41:06.838Z,1.30
2023-07-03T05:43:38.537Z,0.88
2023-07-03T05:46:08.529Z,1.00
2023-07-03T05:48:38.551Z,0.90
2023-07-03T05:51:08.546Z,1.00
2023-07-03T05:53:38.436Z,1.23
2023-07-03T05:56:08.416Z,1.17
2023-07-03T05:58:40.016Z,1.05
2023-07-03T06:01:24.157Z,1.00
2023-07-03T06:03:54.317Z,1.27
2023-07-03T06:06:24.297Z,1.42
2023-07-03T06:08:54.387Z,1.35
2023-07-03T06:11:24.298Z,1.38
2023-07-03T06:13:56.106Z,1.20
2023-07-03T06:16:29.060Z,1.52
2023-07-03T06:18:59.166Z,1.67
2023-07-03T06:21:29.371Z,1.30
2023-07-03T06:24:01.031Z,1.60
2023-07-03T06:26:33.387Z,1.40
2023-07-03T06:29:06.314Z,1.45
2023-07-03T06:31:36.651Z,1.48
2023-07-03T06:34:07.063Z,1.83
2023-07-03T06:36:37.535Z,1.60
2023-07-03T06:39:08.104Z,1.77
2023-07-03T06:41:38.645Z,1.10
2023-07-03T06:44:17.902Z,1.25
2023-07-03T06:46:48.034Z,1.70
2023-07-03T06:49:18.167Z,1.40
2023-07-03T06:51:48.404Z,1.52
2023-07-03T06:54:18.934Z,1.60
2023-07-03T06:56:49.140Z,1.42
2023-07-03T06:59:20.952Z,1.40
2023-07-03T07:01:51.110Z,1.58
2023-07-03T07:04:21.356Z,1.30
2023-07-03T07:06:51.530Z,1.40
2023-07-03T07:09:22.700Z,1.40
2023-07-03T07:11:52.929Z,1.52
2023-07-03T07:14:24.894Z,1.35
2023-07-03T07:16:55.388Z,1.33
2023-07-03T07:19:25.498Z,2.00
2023-07-03T07:21:55.465Z,1.60
2023-07-03T07:24:30.842Z,1.58
2023-07-03T07:27:01.497Z,1.80
2023-07-03T07:29:33.095Z,1.40
2023-07-03T07:32:03.052Z,1.40
2023-07-03T07:34:33.037Z,1.33
2023-07-03T07:37:02.985Z,1.30
2023-07-03T07:39:33.378Z,1.50
2023-07-03T07:42:03.276Z,1.30
2023-07-03T07:44:42.569Z,1.30
2023-07-03T07:47:12.549Z,1.10
2023-07-03T07:49:44.686Z,1.50
2023-07-03T07:52:18.255Z,1.70
2023-07-03T07:54:48.323Z,1.88
2023-07-03T07:57:19.457Z,1.70
2023-07-03T07:59:51.060Z,1.77
2023-07-03T08:02:21.268Z,1.67
2023-07-03T08:04:51.661Z,1.55
2023-07-03T08:07:21.794Z,1.50
2023-07-03T08:09:52.032Z,2.03
2023-07-03T08:12:22.087Z,1.27
2023-07-03T08:14:53.921Z,1.80
2023-07-03T08:17:24.215Z,1.70
2023-07-03T08:19:54.295Z,1.55
2023-07-03T08:22:24.212Z,1.73
2023-07-03T08:24:54.148Z,1.67
2023-07-03T08:27:25.204Z,1.75
2023-07-03T08:29:57.329Z,1.73
2023-07-03T08:32:27.333Z,1.65
2023-07-03T08:37:30.889Z,2.13
2023-07-03T08:40:04.374Z,1.67
2023-07-03T08:42:37.894Z,1.80
2023-07-03T08:45:11.825Z,1.75
2023-07-03T08:47:43.116Z,1.70
2023-07-03T08:50:27.890Z,1.58
2023-07-03T08:53:05.817Z,1.48
2023-07-03T08:55:39.331Z,1.65
2023-07-03T08:58:10.318Z,2.30
2023-07-03T09:00:48.639Z,2.38
2023-07-03T09:03:22.991Z,2.13
2023-07-03T09:06:02.116Z,1.88
2023-07-03T09:08:39.607Z,2.00
2023-07-03T09:11:10.013Z,1.90
2023-07-03T09:13:43.953Z,2.47
2023-07-03T09:16:19.691Z,1.90
2023-07-03T09:18:53.771Z,1.60
2023-07-03T09:21:24.055Z,2.13
2023-07-03T09:23:58.447Z,2.00
2023-07-03T09:26:34.360Z,1.52
2023-07-03T09:29:05.748Z,1.85
2023-07-03T09:31:37.395Z,1.80
2023-07-03T09:34:07.458Z,1.67
2023-07-03T09:36:38.958Z,1.65
2023-07-03T09:39:13.204Z,2.15
2023-07-03T09:41:43.534Z,1.75
2023-07-03T09:44:15.428Z,1.60
2023-07-03T09:46:47.601Z,1.70
2023-07-03T09:49:19.263Z,1.80
2023-07-03T09:51:59.131Z,1.55
2023-07-03T09:54:31.421Z,1.23
2023-07-03T09:57:02.168Z,1.13
2023-07-03T09:59:33.810Z,1.20
2023-07-03T10:07:20.153Z,1.23
2023-07-03T10:12:27.266Z,1.15
2023-07-03T10:15:00.285Z,1.70
2023-07-03T10:17:36.410Z,1.35
2023-07-03T10:20:12.607Z,1.20
2023-07-03T10:22:44.061Z,1.58
2023-07-03T10:25:20.880Z,1.58
2023-07-03T10:27:52.149Z,1.10
2023-07-03T10:30:23.550Z,1.52
2023-07-03T10:32:56.913Z,1.23
2023-07-03T10:35:30.354Z,1.67
2023-07-03T10:38:05.587Z,1.50
2023-07-03T10:40:39.691Z,1.30
2023-07-03T10:43:12.642Z,1.30
2023-07-03T10:45:42.709Z,1.60
2023-07-03T10:48:18.157Z,1.40
2023-07-03T10:50:54.989Z,1.42
2023-07-03T10:53:33.358Z,1.33
2023-07-03T10:56:11.625Z,1.40
2023-07-03T10:58:46.570Z,1.48
2023-07-03T11:01:22.321Z,1.70
2023-07-03T11:04:22.348Z,2.33
2023-07-03T11:06:56.894Z,2.30
2023-07-03T11:09:32.923Z,2.00
2023-07-03T11:12:08.852Z,1.85
2023-07-03T11:14:45.198Z,1.75
2023-07-03T11:17:21.262Z,1.67
2023-07-03T11:19:58.362Z,1.67
2023-07-03T11:25:12.757Z,1.58
2023-07-03T11:30:19.177Z,1.75
2023-07-03T11:32:49.604Z,1.52
2023-07-03T11:40:39.524Z,1.75
2023-07-03T11:43:36.194Z,1.55
2023-07-03T11:46:21.243Z,1.10
2023-07-03T11:48:53.377Z,1.40
2023-07-03T11:51:38.160Z,1.30
2023-07-03T11:54:22.771Z,1.73
2023-07-03T11:59:34.216Z,1.50
2023-07-03T12:02:45.895Z,1.30
2023-07-03T12:05:48.851Z,1.40
2023-07-03T12:08:44.826Z,1.40
2023-07-03T12:11:17.140Z,1.15
2023-07-03T12:13:57.635Z,1.40
2023-07-03T12:16:34.348Z,1.52
2023-07-03T12:19:06.924Z,1.77
2023-07-03T12:21:38.972Z,1.27
2023-07-03T12:24:29.409Z,1.95
2023-07-03T12:27:05.009Z,1.58
2023-07-03T12:29:37.145Z,1.40
2023-07-03T12:32:10.212Z,1.42
2023-07-03T12:34:41.703Z,1.50
2023-07-03T12:37:15.879Z,1.60
2023-07-03T12:39:48.850Z,1.70
2023-07-03T12:42:23.090Z,1.92
2023-07-03T12:44:53.609Z,2.03
2023-07-03T12:47:24.861Z,1.73
2023-07-03T12:50:03.533Z,2.45
2023-07-03T12:52:35.004Z,1.95
2023-07-03T12:55:14.587Z,2.80
2023-07-03T12:57:47.306Z,2.70
2023-07-03T13:00:19.280Z,3.33
2023-07-03T13:02:49.263Z,3.22
2023-07-03T13:05:23.753Z,2.85
2023-07-03T13:07:54.682Z,2.80
2023-07-03T13:10:26.719Z,3.30
2023-07-03T13:13:11.368Z,3.25
2023-07-03T13:18:18.588Z,2.53
2023-07-03T13:20:59.818Z,2.92
2023-07-03T13:23:33.960Z,2.30
2023-07-03T13:26:09.861Z,1.98
2023-07-03T13:28:42.109Z,2.20
2023-07-03T13:31:16.179Z,2.03
2023-07-03T13:33:47.524Z,1.70
2023-07-03T13:36:25.578Z,2.00
2023-07-03T13:39:07.568Z,2.00
2023-07-03T13:41:39.702Z,2.20
2023-07-03T13:44:12.984Z,2.20
2023-07-03T13:46:44.094Z,2.10
2023-07-03T13:49:19.033Z,2.03
2023-07-03T13:51:50.377Z,1.88
2023-07-03T13:54:20.457Z,2.10
2023-07-03T13:56:52.127Z,2.28
2023-07-03T13:59:22.039Z,1.65
2023-07-03T14:01:52.087Z,2.05
2023-07-03T14:04:22.076Z,2.03
2023-07-03T14:06:52.043Z,2.03
2023-07-03T14:09:24.814Z,1.80
2023-07-03T14:11:56.646Z,1.83
2023-07-03T14:14:27.452Z,1.90
2023-07-03T14:16:57.545Z,1.45
2023-07-03T14:19:27.668Z,2.28
2023-07-03T14:22:01.267Z,1.70
2023-07-03T14:24:31.442Z,1.58
2023-07-03T14:27:03.518Z,1.38
2023-07-03T14:29:33.722Z,1.52
2023-07-03T14:32:03.777Z,1.75
2023-07-03T14:34:34.423Z,2.15
2023-07-03T14:37:06.188Z,1.65
2023-07-03T14:39:36.295Z,1.45
2023-07-03T14:42:08.593Z,1.50
2023-07-03T14:44:38.824Z,1.30
2023-07-03T14:47:09.402Z,1.65
2023-07-03T14:49:41.208Z,1.58
2023-07-03T14:52:11.448Z,1.50
2023-07-03T14:54:41.543Z,1.70
2023-07-03T14:57:13.307Z,1.50
2023-07-03T14:59:44.815Z,1.42
2023-07-03T15:02:15.080Z,1.60
2023-07-03T15:04:48.349Z,1.33
2023-07-03T15:07:18.451Z,1.67
2023-07-03T15:09:48.551Z,1.90
2023-07-03T15:12:20.570Z,1.80
2023-07-03T15:15:04.835Z,1.40
2023-07-03T15:17:38.307Z,1.60
2023-07-03T15:20:10.792Z,1.63
2023-07-03T15:22:46.386Z,1.58
2023-07-03T15:25:17.257Z,1.60
2023-07-03T15:27:52.750Z,1.60
2023-07-03T15:30:25.708Z,1.70
2023-07-03T15:32:56.530Z,1.67
2023-07-03T15:35:27.156Z,1.52
2023-07-03T15:37:57.796Z,1.30
2023-07-03T15:40:28.590Z,1.70
2023-07-03T15:42:59.197Z,1.50
2023-07-03T15:45:36.934Z,1.35
2023-07-03T15:48:09.850Z,1.40
2023-07-03T15:50:40.546Z,1.67
2023-07-03T15:53:11.322Z,1.67
2023-07-03T15:55:42.143Z,1.85
2023-07-03T15:58:12.696Z,1.40
2023-07-03T16:00:45.140Z,1.60
2023-07-03T16:03:15.733Z,1.98
2023-07-03T16:05:46.338Z,1.83
2023-07-03T16:08:16.978Z,1.70
2023-07-03T16:10:47.743Z,1.88
2023-07-03T16:13:19.153Z,1.60
2023-07-03T16:15:51.946Z,1.88
2023-07-03T16:18:22.858Z,2.00
2023-07-03T16:20:58.756Z,1.70
2023-07-03T16:23:29.776Z,1.90
2023-07-03T16:26:06.884Z,1.75
2023-07-03T16:28:39.442Z,1.77
2023-07-03T16:31:13.288Z,2.13
2023-07-03T16:33:44.816Z,1.73
2023-07-03T16:36:16.554Z,2.03
2023-07-03T16:38:49.997Z,2.42
2023-07-03T16:41:21.277Z,2.17
2023-07-03T16:43:53.197Z,1.98
2023-07-03T16:46:27.887Z,2.15
2023-07-03T16:48:59.116Z,2.20
2023-07-03T16:51:30.874Z,2.13
2023-07-03T16:54:01.512Z,2.45
2023-07-03T16:56:32.256Z,2.20
2023-07-03T16:59:02.881Z,1.92
2023-07-03T17:01:35.378Z,2.10
2023-07-03T17:04:06.059Z,1.67
2023-07-03T17:06:37.686Z,2.10
2023-07-03T17:09:08.330Z,1.98
2023-07-03T17:11:39.028Z,1.80
2023-07-03T17:14:10.331Z,1.90
2023-07-03T17:16:42.687Z,1.77
2023-07-03T17:19:13.283Z,1.80
2023-07-03T17:21:43.865Z,1.38
2023-07-03T17:24:14.341Z,2.10
2023-07-03T17:26:44.951Z,1.45
2023-07-03T17:29:15.575Z,1.65
2023-07-03T17:31:48.752Z,1.77
2023-07-03T17:34:20.080Z,1.33
2023-07-03T17:36:51.268Z,1.55
2023-07-03T17:39:22.448Z,1.60
2023-07-03T17:41:53.739Z,2.85
2023-07-03T17:44:24.895Z,1.52
2023-07-03T17:47:05.285Z,1.52
2023-07-03T17:49:36.562Z,1.50
2023-07-03T17:52:08.038Z,1.58
2023-07-03T17:54:39.200Z,1.65
2023-07-03T17:57:11.532Z,1.50
2023-07-03T17:59:42.789Z,2.13
2023-07-03T18:02:15.896Z,1.50
2023-07-03T18:04:47.101Z,1.58
2023-07-03T18:07:18.234Z,2.35
2023-07-03T18:09:51.963Z,1.55
2023-07-03T18:12:23.184Z,1.55
2023-07-03T18:15:18.975Z,1.65
2023-07-03T18:17:51.980Z,2.28
2023-07-03T18:20:23.322Z,2.03
2023-07-03T18:22:55.240Z,2.53
2023-07-03T18:25:26.540Z,2.20
2023-07-03T18:27:57.798Z,1.60
2023-07-03T18:30:29.110Z,1.80
2023-07-03T18:33:02.250Z,1.40
2023-07-03T18:35:37.832Z,1.67
2023-07-03T18:38:09.077Z,2.15
2023-07-03T18:40:40.292Z,1.90
2023-07-03T18:43:11.728Z,1.85
2023-07-03T18:45:42.999Z,1.70
2023-07-03T18:48:16.122Z,2.10
2023-07-03T18:50:47.344Z,2.10
2023-07-03T18:53:18.674Z,2.33
2023-07-03T18:55:50.317Z,2.20
2023-07-03T18:58:22.021Z,2.35
2023-07-03T19:00:53.196Z,1.75
2023-07-03T19:03:26.295Z,2.15
2023-07-03T19:06:00.713Z,3.03
2023-07-03T19:08:31.954Z,2.70
2023-07-03T19:11:03.038Z,3.08
2023-07-03T19:13:35.576Z,2.95
2023-07-03T19:16:07.466Z,3.00
2023-07-03T19:18:40.710Z,3.05
2023-07-03T19:21:14.622Z,3.13
2023-07-03T19:23:45.517Z,2.85
2023-07-03T19:26:15.986Z,3.35
2023-07-03T19:28:51.914Z,3.22
2023-07-03T19:31:22.513Z,3.05
2023-07-03T19:33:54.785Z,3.60
2023-07-03T19:36:25.293Z,3.70
2023-07-03T19:38:55.800Z,3.65
2023-07-03T19:41:26.705Z,3.10
2023-07-03T19:43:57.173Z,2.70
2023-07-03T19:46:27.676Z,2.88
2023-07-03T19:48:59.946Z,3.05
2023-07-03T19:51:30.531Z,3.17
2023-07-03T19:54:01.405Z,3.90
2023-07-03T19:56:32.393Z,3.13
2023-07-03T19:59:02.938Z,3.35
2023-07-03T20:01:34.172Z,4.15
2023-07-03T20:04:08.190Z,3.70
2023-07-03T20:06:38.725Z,3.35
2023-07-03T20:09:09.268Z,3.22
2023-07-03T20:11:39.866Z,3.08
2023-07-03T20:14:11.639Z,3.45
2023-07-03T20:16:43.251Z,3.05
2023-07-03T20:19:16.403Z,3.92
2023-07-03T20:21:49.027Z,4.13
2023-07-03T20:24:20.388Z,4.05
2023-07-03T20:26:51.662Z,3.70
2023-07-03T20:29:22.887Z,3.88
2023-07-03T20:31:55.164Z,3.85
2023-07-03T20:34:28.206Z,4.30
2023-07-03T20:36:59.312Z,4.70
2023-07-03T20:39:30.464Z,5.10
2023-07-03T20:42:01.565Z,4.50
2023-07-03T20:44:32.705Z,4.60
2023-07-03T20:47:05.568Z,4.80
2023-07-03T20:49:38.721Z,3.78
2023-07-03T20:52:11.630Z,4.70
2023-07-03T20:54:56.400Z,4.20
2023-07-03T20:57:27.561Z,4.38
2023-07-03T20:59:58.663Z,4.22
2023-07-03T21:02:29.966Z,4.80
2023-07-03T21:05:03.221Z,5.22
2023-07-03T21:07:34.353Z,4.68
2023-07-03T21:10:05.618Z,5.90
2023-07-03T21:12:36.074Z,5.13
2023-07-03T21:15:11.467Z,4.70
2023-07-03T21:17:42.924Z,4.88
2023-07-03T21:20:16.569Z,4.05
2023-07-03T21:22:47.700Z,5.10
2023-07-03T21:25:19.286Z,4.22
2023-07-03T21:27:50.449Z,5.00
2023-07-03T21:30:21.696Z,5.63
2023-07-03T21:32:53.124Z,4.88
2023-07-03T21:35:26.811Z,5.60
2023-07-03T21:37:57.938Z,4.18
2023-07-03T21:40:30.844Z,5.65
2023-07-03T21:43:01.984Z,4.65
2023-07-03T21:45:33.145Z,5.60
2023-07-03T21:48:06.151Z,14.20
2023-07-03T21:50:39.212Z,14.57
2023-07-03T21:53:10.333Z,3.95
2023-07-03T21:55:41.543Z,4.90
2023-07-03T21:58:12.688Z,4.47
2023-07-03T22:00:43.852Z,4.18
2023-07-03T22:03:15.107Z,4.22
2023-07-03T22:05:48.125Z,5.45
2023-07-03T22:08:19.241Z,5.32
2023-07-03T22:10:50.456Z,5.03
2023-07-03T22:13:21.219Z,4.35
2023-07-03T22:15:53.265Z,5.80
2023-07-03T22:18:25.626Z,5.35
2023-07-03T22:20:58.744Z,5.43
2023-07-03T22:23:31.945Z,4.38
2023-07-03T22:26:04.266Z,5.95
2023-07-03T22:28:35.524Z,5.50
2023-07-03T22:31:07.332Z,5.88
2023-07-03T22:33:39.135Z,5.32
2023-07-03T22:36:12.757Z,6.25
2023-07-03T22:38:43.956Z,5.50
2023-07-03T22:41:17.265Z,6.45
2023-07-03T22:43:49.358Z,6.28
2023-07-03T22:46:20.744Z,4.75
2023-07-03T22:48:52.820Z,5.47
2023-07-03T22:51:26.184Z,4.30
2023-07-03T22:53:57.393Z,5.32
2023-07-03T22:56:30.300Z,6.13
2023-07-03T22:59:01.487Z,4.45
2023-07-03T23:01:32.646Z,5.90
2023-07-03T23:04:03.888Z,5.97
2023-07-03T23:06:38.225Z,5.40
2023-07-03T23:09:11.235Z,5.43
2023-07-03T23:11:42.704Z,6.25
2023-07-03T23:14:13.209Z,5.75
2023-07-03T23:16:46.258Z,4.90
2023-07-03T23:19:19.669Z,6.68
2023-07-03T23:21:54.692Z,5.28
2023-07-03T23:24:27.857Z,4.95
2023-07-03T23:26:58.983Z,6.40
2023-07-03T23:29:30.995Z,5.30
2023-07-03T23:32:02.286Z,6.60
2023-07-03T23:34:33.654Z,3.53
2023-07-03T23:37:07.068Z,5.82
2023-07-03T23:39:40.039Z,6.07
2023-07-03T23:42:11.379Z,5.47
2023-07-03T23:44:42.729Z,10.27
2023-07-03T23:47:14.949Z,8.70
2023-07-03T23:49:46.787Z,5.90
2023-07-03T23:52:20.321Z,5.60
2023-07-03T23:54:52.706Z,5.97
2023-07-03T23:57:24.646Z,27.17
2023-07-03T23:59:55.869Z,22.65
